Time;durP1;ratioP1;P1;durP2;ratioP2;P2;SDS_P1;SDS_P2;PMS_P1;PMS_P2;Temp;Humidity;BMP_temperature;BMP_pressure;BME280_temperature;BME280_humidity;BME280_pressure;Samples;Min_cycle;Max_cycle;Signal;HPM_P1;HPM_P2
2024/04/26 00:00:44;;;;;;;;;;;;;;;9.34;66.64;94011.41;4452736;26;19940;-61
2024/04/26 00:02:46;;;;;;;;;;;;;;;9.41;66.26;94010.56;4440380;26;19937;-62
2024/04/26 00:04:48;;;;;;;;;;;;;;;9.42;66.30;94012.19;4441090;26;19941;-62
2024/04/26 00:06:50;;;;;;;;;;;;;;;9.35;66.38;94015.63;4445960;26;19929;-61
2024/04/26 00:08:52;;;;;;;;;;;;;;;9.30;66.38;94016.16;4444005;26;19933;-60
2024/04/26 00:10:56;;;;;;;;;;;;;;;9.28;66.58;94012.88;4447914;26;19929;-64
2024/04/26 00:12:58;;;;;;;;;;;;;;;9.29;66.63;94011.91;4441000;26;19929;-60
2024/04/26 00:15:00;;;;;;;;;;;;;;;9.24;66.93;94016.81;4443566;26;19936;-62
2024/04/26 00:17:02;;;;;;;;;;;;;;;9.19;66.76;94016.50;4443466;26;19933;-63
2024/04/26 00:19:04;;;;;;;;;;;;;;;9.12;66.57;94018.13;4427128;26;20373;-59
2024/04/26 00:21:06;;;;;;;;;;;;;;;9.11;66.86;94021.75;4427840;26;20273;-60
2024/04/26 00:23:08;;;;;;;;;;;;;;;9.11;67.29;94013.91;4442502;26;19945;-60
2024/04/26 00:25:10;;;;;;;;;;;;;;;8.83;68.14;94022.13;4427387;26;20003;-61
2024/04/26 00:27:12;;;;;;;;;;;;;;;8.49;69.15;94023.09;4438488;26;19933;-60
2024/04/26 00:29:14;;;;;;;;;;;;;;;8.02;71.09;94022.84;4444545;26;19929;-64
2024/04/26 00:31:19;;;;;;;;;;;;;;;7.84;72.20;94017.75;4433734;26;19930;-59
2024/04/26 00:33:21;;;;;;;;;;;;;;;7.83;72.65;94010.91;4437684;26;19958;-61
2024/04/26 00:35:23;;;;;;;;;;;;;;;7.93;72.25;94011.59;4444339;26;20349;-62
2024/04/26 00:37:25;;;;;;;;;;;;;;;8.09;71.38;94006.41;4441088;26;20006;-62
2024/04/26 00:39:27;;;;;;;;;;;;;;;8.22;70.55;94016.38;4439091;26;19954;-59
2024/04/26 00:41:29;;;;;;;;;;;;;;;8.35;70.02;94006.28;4445025;26;19945;-60
2024/04/26 00:43:30;;;;;;;;;;;;;;;8.43;69.33;94002.06;4437847;26;20479;-61
2024/04/26 00:45:32;;;;;;;;;;;;;;;8.52;69.12;94004.50;4445740;26;19930;-60
2024/04/26 00:47:34;;;;;;;;;;;;;;;8.63;68.28;94007.78;4443543;26;19953;-61
2024/04/26 00:49:36;;;;;;;;;;;;;;;8.73;68.23;94005.78;4442026;26;19929;-59
2024/04/26 00:51:38;;;;;;;;;;;;;;;8.82;67.76;94005.63;4434057;26;19999;-60
2024/04/26 00:53:40;;;;;;;;;;;;;;;8.92;67.43;94008.06;4442087;26;19948;-60
2024/04/26 00:55:42;;;;;;;;;;;;;;;8.97;67.26;94021.47;4434347;26;20376;-58
2024/04/26 00:57:44;;;;;;;;;;;;;;;9.02;66.83;94008.69;4426203;26;19938;-60
2024/04/26 00:59:45;;;;;;;;;;;;;;;8.92;66.11;94015.88;4428181;26;19936;-60
2024/04/26 01:01:47;;;;;;;;;;;;;;;8.86;66.47;94013.13;4431210;26;19942;-60
2024/04/26 01:03:49;;;;;;;;;;;;;;;8.80;66.49;94006.78;4434189;26;20257;-62
2024/04/26 01:05:51;;;;;;;;;;;;;;;8.82;66.21;94012.66;4437261;26;19930;-59
2024/04/26 01:07:53;;;;;;;;;;;;;;;8.80;66.37;94019.84;4432867;26;19993;-61
2024/04/26 01:09:54;;;;;;;;;;;;;;;8.80;66.35;94025.06;4444782;26;20478;-59
2024/04/26 01:11:56;;;;;;;;;;;;;;;8.82;65.91;94020.50;4438624;26;19933;-61
2024/04/26 01:13:58;;;;;;;;;;;;;;;8.80;65.88;94019.84;4438363;26;19930;-62
2024/04/26 01:16:00;;;;;;;;;;;;;;;8.75;66.06;94019.50;4438204;26;19988;-61
2024/04/26 01:18:02;;;;;;;;;;;;;;;8.77;66.32;94017.53;4418245;26;19941;-59
2024/04/26 01:20:04;;;;;;;;;;;;;;;8.71;65.93;94021.66;4435528;26;19961;-59
2024/04/26 01:22:26;;;;;;;;;;;;;;;8.75;66.06;94027.34;4442530;26;20377;-59
2024/04/26 01:24:27;;;;;;;;;;;;;;;8.64;65.99;94027.69;4438711;26;20261;-61
2024/04/26 01:26:29;;;;;;;;;;;;;;;8.53;66.31;94023.59;4443687;26;19962;-60
2024/04/26 01:28:34;;;;;;;;;;;;;;;8.46;66.69;94027.84;4441728;26;19949;-60
2024/04/26 01:30:35;;;;;;;;;;;;;;;8.44;66.25;94037.63;4436038;26;20022;-60
2024/04/26 01:32:37;;;;;;;;;;;;;;;8.49;66.17;94033.53;4437303;26;19978;-62
2024/04/26 01:34:39;;;;;;;;;;;;;;;8.55;65.78;94034.69;4441977;26;19937;-60
2024/04/26 01:36:41;;;;;;;;;;;;;;;8.55;65.65;94040.72;4445669;26;19941;-60
2024/04/26 01:38:43;;;;;;;;;;;;;;;8.49;65.73;94043.97;4444486;26;20248;-61
2024/04/26 01:40:45;;;;;;;;;;;;;;;8.47;65.76;94045.13;4442102;26;19930;-61
2024/04/26 01:42:47;;;;;;;;;;;;;;;8.46;66.00;94041.72;4445238;26;20106;-60
2024/04/26 01:44:48;;;;;;;;;;;;;;;8.44;65.81;94043.66;4435727;26;20004;-60
2024/04/26 01:46:50;;;;;;;;;;;;;;;8.51;65.49;94044.63;4420762;26;20464;-58
2024/04/26 01:48:52;;;;;;;;;;;;;;;8.47;65.89;94045.13;4437133;26;19929;-61
2024/04/26 01:50:54;;;;;;;;;;;;;;;8.52;65.64;94048.91;4444622;26;19934;-60
2024/04/26 01:52:56;;;;;;;;;;;;;;;8.58;65.49;94052.63;4431687;26;20360;-61
2024/04/26 01:54:59;;;;;;;;;;;;;;;8.53;65.38;94063.56;4449735;26;19930;-61
2024/04/26 01:57:01;;;;;;;;;;;;;;;8.57;65.34;94061.47;4430711;26;19930;-61
2024/04/26 01:59:03;;;;;;;;;;;;;;;8.52;65.32;94063.75;4439721;26;19933;-64
2024/04/26 02:01:05;;;;;;;;;;;;;;;8.42;65.32;94069.09;4443440;26;19969;-60
2024/04/26 02:03:07;;;;;;;;;;;;;;;8.45;65.31;94071.38;4434988;26;19941;-59
2024/04/26 02:05:10;;;;;;;;;;;;;;;8.46;65.38;94069.59;4426102;26;19941;-61
2024/04/26 02:07:14;;;;;;;;;;;;;;;8.38;65.40;94072.97;4444032;26;20194;-61
2024/04/26 02:09:16;;;;;;;;;;;;;;;8.39;65.39;94070.22;4442989;26;20437;-60
2024/04/26 02:11:18;;;;;;;;;;;;;;;8.37;65.54;94076.59;4443505;26;19993;-61
2024/04/26 02:13:20;;;;;;;;;;;;;;;8.36;65.33;94083.56;4435080;26;19930;-60
2024/04/26 02:15:21;;;;;;;;;;;;;;;8.29;65.76;94069.53;4440425;26;19934;-60
2024/04/26 02:17:23;;;;;;;;;;;;;;;8.27;65.43;94073.28;4443963;26;20347;-61
2024/04/26 02:19:25;;;;;;;;;;;;;;;8.23;65.97;94090.25;4426758;26;19929;-60
2024/04/26 02:21:27;;;;;;;;;;;;;;;8.23;65.93;94082.41;4424196;26;20003;-59
2024/04/26 02:23:29;;;;;;;;;;;;;;;8.15;66.09;94091.88;4437072;26;20351;-59
2024/04/26 02:25:32;;;;;;;;;;;;;;;8.03;66.25;94093.13;4444486;26;19953;-58
2024/04/26 02:27:34;;;;;;;;;;;;;;;8.03;66.67;94090.53;4441165;26;19930;-60
2024/04/26 02:29:36;;;;;;;;;;;;;;;7.98;67.29;94095.41;4431378;26;19937;-60
2024/04/26 02:31:39;;;;;;;;;;;;;;;7.92;67.55;94103.84;4443909;26;20403;-59
2024/04/26 02:33:42;;;;;;;;;;;;;;;8.01;67.48;94108.13;4433648;26;19962;-61
2024/04/26 02:35:45;;;;;;;;;;;;;;;7.99;67.68;94104.84;4437825;26;19940;-60
2024/04/26 02:37:47;;;;;;;;;;;;;;;7.96;67.98;94095.56;4442240;26;20010;-61
2024/04/26 02:39:49;;;;;;;;;;;;;;;7.90;68.47;94103.19;4449456;26;20333;-61
2024/04/26 02:41:51;;;;;;;;;;;;;;;7.91;68.16;94102.19;4433311;26;19929;-60
2024/04/26 02:43:52;;;;;;;;;;;;;;;7.96;67.83;94106.00;4436551;26;20071;-59
2024/04/26 02:45:54;;;;;;;;;;;;;;;8.01;67.99;94110.72;4441120;26;19934;-60
2024/04/26 02:47:56;;;;;;;;;;;;;;;8.13;67.33;94104.25;4440903;26;20011;-59
2024/04/26 02:49:58;;;;;;;;;;;;;;;8.05;67.41;94106.84;4437993;26;20332;-61
2024/04/26 02:52:00;;;;;;;;;;;;;;;8.15;67.13;94111.91;4443237;26;19966;-60
2024/04/26 02:54:02;;;;;;;;;;;;;;;8.09;67.07;94105.53;4444078;26;20262;-59
2024/04/26 02:56:04;;;;;;;;;;;;;;;8.11;66.90;94116.63;4426735;26;20706;-60
2024/04/26 02:58:06;;;;;;;;;;;;;;;8.12;66.84;94109.63;4424470;26;20000;-60
2024/04/26 03:00:08;;;;;;;;;;;;;;;8.14;66.57;94113.69;4442181;26;20010;-59
2024/04/26 03:02:20;;;;;;;;;;;;;;;8.15;66.28;94109.28;4436091;26;19930;-59
2024/04/26 03:04:22;;;;;;;;;;;;;;;8.20;66.34;94109.66;4444287;26;19937;-61
2024/04/26 03:06:24;;;;;;;;;;;;;;;8.27;65.86;94121.06;4438027;26;20042;-59
2024/04/26 03:08:25;;;;;;;;;;;;;;;8.34;65.94;94118.66;4442809;26;19999;-59
2024/04/26 03:10:28;;;;;;;;;;;;;;;8.30;65.84;94115.56;4441617;26;19929;-61
2024/04/26 03:12:29;;;;;;;;;;;;;;;8.33;66.24;94117.03;4437548;26;20600;-60
2024/04/26 03:14:31;;;;;;;;;;;;;;;8.36;66.31;94121.91;4439082;26;19936;-59
2024/04/26 03:16:38;;;;;;;;;;;;;;;8.27;66.53;94122.88;4435871;26;19929;-61
2024/04/26 03:18:41;;;;;;;;;;;;;;;7.89;67.39;94138.06;4429514;26;20053;-60
2024/04/26 03:20:44;;;;;;;;;;;;;;;7.93;67.62;94137.59;4433257;26;20085;-60
2024/04/26 03:22:45;;;;;;;;;;;;;;;7.90;68.18;94142.31;4434151;26;20512;-59
2024/04/26 03:24:47;;;;;;;;;;;;;;;7.71;68.63;94138.13;4430977;26;20418;-60
2024/04/26 03:26:49;;;;;;;;;;;;;;;7.48;69.31;94149.06;4429594;26;19937;-61
2024/04/26 03:28:51;;;;;;;;;;;;;;;7.42;70.17;94144.50;4430695;26;19995;-61
2024/04/26 03:30:53;;;;;;;;;;;;;;;7.31;70.35;94160.38;4440187;26;20055;-60
2024/04/26 03:32:55;;;;;;;;;;;;;;;7.06;70.87;94160.19;4428945;26;19929;-61
2024/04/26 03:34:57;;;;;;;;;;;;;;;6.93;71.04;94155.38;4434306;26;19937;-60
2024/04/26 03:36:58;;;;;;;;;;;;;;;6.91;71.60;94157.31;4443868;26;19944;-61
2024/04/26 03:39:00;;;;;;;;;;;;;;;7.06;72.13;94159.38;4425166;26;19930;-59
2024/04/26 03:41:02;;;;;;;;;;;;;;;7.14;71.26;94167.25;4440750;26;20287;-58
2024/04/26 03:43:05;;;;;;;;;;;;;;;7.15;70.85;94172.31;4459960;26;20386;-60
2024/04/26 03:45:06;;;;;;;;;;;;;;;6.90;71.59;94166.06;4434424;26;20032;-60
2024/04/26 03:47:08;;;;;;;;;;;;;;;6.83;72.14;94164.22;4447123;26;19936;-60
2024/04/26 03:49:10;;;;;;;;;;;;;;;7.03;72.47;94167.47;4431022;26;20037;-61
2024/04/26 03:51:12;;;;;;;;;;;;;;;7.22;71.44;94172.53;4437399;26;19969;-61
2024/04/26 03:53:15;;;;;;;;;;;;;;;7.41;71.10;94171.53;4440555;26;19930;-61
2024/04/26 03:55:17;;;;;;;;;;;;;;;7.56;70.49;94177.00;4442995;26;20019;-60
2024/04/26 03:57:19;;;;;;;;;;;;;;;7.71;70.04;94177.25;4439277;26;19929;-59
2024/04/26 03:59:21;;;;;;;;;;;;;;;7.80;68.96;94184.13;4442398;26;19929;-60
2024/04/26 04:01:23;;;;;;;;;;;;;;;7.80;69.27;94182.34;4438395;26;20442;-59
2024/04/26 04:03:24;;;;;;;;;;;;;;;7.92;69.66;94184.69;4444472;26;19929;-59
2024/04/26 04:05:26;;;;;;;;;;;;;;;8.08;69.57;94191.78;4423677;26;19942;-61
2024/04/26 04:07:28;;;;;;;;;;;;;;;7.89;68.48;94198.03;4444985;26;19940;-61
2024/04/26 04:09:30;;;;;;;;;;;;;;;7.69;69.42;94194.84;4437628;26;19983;-61
2024/04/26 04:11:33;;;;;;;;;;;;;;;7.34;70.44;94201.78;4426210;26;20241;-59
2024/04/26 04:13:34;;;;;;;;;;;;;;;7.06;72.11;94211.47;4444956;26;20007;-62
2024/04/26 04:15:36;;;;;;;;;;;;;;;7.02;72.17;94207.53;4444658;26;19936;-60
2024/04/26 04:17:38;;;;;;;;;;;;;;;6.95;72.16;94202.91;4441777;26;20047;-61
2024/04/26 04:19:40;;;;;;;;;;;;;;;6.84;72.50;94208.34;4445909;26;20026;-60
2024/04/26 04:21:42;;;;;;;;;;;;;;;6.83;73.12;94209.31;4446260;26;19937;-61
2024/04/26 04:23:44;;;;;;;;;;;;;;;6.96;72.71;94207.13;4442404;26;20017;-62
2024/04/26 04:25:46;;;;;;;;;;;;;;;7.13;71.81;94210.72;4443974;26;20299;-60
2024/04/26 04:27:48;;;;;;;;;;;;;;;7.08;71.83;94204.34;4435536;26;20389;-61
2024/04/26 04:29:49;;;;;;;;;;;;;;;7.14;72.07;94207.16;4437100;26;19937;-61
2024/04/26 04:31:51;;;;;;;;;;;;;;;7.31;71.84;94210.72;4431850;26;19941;-61
2024/04/26 04:33:53;;;;;;;;;;;;;;;7.33;70.73;94213.97;4440449;26;20419;-58
2024/04/26 04:35:55;;;;;;;;;;;;;;;7.15;71.42;94219.19;4430211;26;20005;-60
2024/04/26 04:37:57;;;;;;;;;;;;;;;6.85;72.21;94215.19;4437348;26;19930;-62
2024/04/26 04:39:59;;;;;;;;;;;;;;;6.73;72.46;94224.16;4440334;26;19949;-59
2024/04/26 04:42:01;;;;;;;;;;;;;;;7.07;72.75;94229.53;4426815;26;19929;-59
2024/04/26 04:44:04;;;;;;;;;;;;;;;7.35;72.20;94221.63;4439705;26;20052;-61
2024/04/26 04:46:06;;;;;;;;;;;;;;;7.68;72.01;94230.53;4433950;26;19942;-62
2024/04/26 04:48:08;;;;;;;;;;;;;;;7.61;70.33;94226.88;4435803;26;19958;-59
2024/04/26 04:50:10;;;;;;;;;;;;;;;7.73;70.25;94228.25;4436523;26;20348;-60
2024/04/26 04:52:12;;;;;;;;;;;;;;;7.63;70.43;94232.75;4434500;26;19929;-62
2024/04/26 04:54:13;;;;;;;;;;;;;;;7.74;70.49;94235.13;4433131;26;19942;-59
2024/04/26 04:56:15;;;;;;;;;;;;;;;7.86;70.24;94240.09;4439812;26;19935;-60
2024/04/26 04:58:17;;;;;;;;;;;;;;;8.16;69.72;94237.00;4432866;26;19930;-61
2024/04/26 05:00:19;;;;;;;;;;;;;;;8.45;68.66;94235.03;4435741;26;19995;-61
2024/04/26 05:02:21;;;;;;;;;;;;;;;8.60;67.65;94234.28;4441569;26;20616;-61
2024/04/26 05:04:24;;;;;;;;;;;;;;;8.70;68.16;94238.53;4445685;26;19930;-61
2024/04/26 05:06:27;;;;;;;;;;;;;;;8.83;67.40;94236.28;4445517;26;20048;-61
2024/04/26 05:08:29;;;;;;;;;;;;;;;8.93;66.66;94239.59;4445000;26;19977;-61
2024/04/26 05:10:31;;;;;;;;;;;;;;;8.84;67.04;94237.94;4443559;26;19945;-61
2024/04/26 05:12:32;;;;;;;;;;;;;;;8.82;67.30;94239.88;4442867;26;19938;-62
2024/04/26 05:14:34;;;;;;;;;;;;;;;8.93;67.24;94238.78;4445090;26;19936;-61
2024/04/26 05:16:36;;;;;;;;;;;;;;;8.71;66.88;94246.22;4434495;26;19937;-61
2024/04/26 05:18:38;;;;;;;;;;;;;;;8.68;67.70;94245.72;4437698;26;20369;-58
2024/04/26 05:20:40;;;;;;;;;;;;;;;8.67;67.90;94244.91;4434840;26;19930;-61
2024/04/26 05:22:42;;;;;;;;;;;;;;;8.88;67.73;94244.44;4441036;26;20556;-60
2024/04/26 05:24:44;;;;;;;;;;;;;;;9.13;67.73;94247.94;4441992;26;19969;-60
2024/04/26 05:26:49;;;;;;;;;;;;;;;9.39;66.96;94241.75;4426172;26;19930;-58
2024/04/26 05:28:51;;;;;;;;;;;;;;;9.63;66.21;94244.34;4423782;26;19930;-61
2024/04/26 05:30:53;;;;;;;;;;;;;;;9.81;65.21;94251.25;4427128;26;20411;-60
2024/04/26 05:32:56;;;;;;;;;;;;;;;9.96;64.72;94246.97;4441622;26;19962;-61
2024/04/26 05:34:58;;;;;;;;;;;;;;;9.93;63.51;94251.69;4449986;26;19957;-61
2024/04/26 05:37:00;;;;;;;;;;;;;;;9.71;64.13;94245.34;4420701;26;20063;-58
2024/04/26 05:39:01;;;;;;;;;;;;;;;9.80;64.36;94244.34;4434793;26;20446;-67
2024/04/26 05:41:05;;;;;;;;;;;;;;;9.98;64.17;94246.78;4436169;26;20328;-60
2024/04/26 05:43:07;;;;;;;;;;;;;;;10.17;63.76;94251.63;4444798;26;19929;-59
2024/04/26 05:45:09;;;;;;;;;;;;;;;9.88;62.90;94257.44;4437548;26;19953;-64
2024/04/26 05:47:11;;;;;;;;;;;;;;;9.48;64.28;94259.06;4442982;26;20305;-62
2024/04/26 05:49:15;;;;;;;;;;;;;;;9.23;65.83;94261.69;4438008;26;19936;-60
2024/04/26 05:51:17;;;;;;;;;;;;;;;9.15;65.84;94258.25;4440706;26;20088;-61
2024/04/26 05:53:19;;;;;;;;;;;;;;;9.12;66.71;94263.78;4445215;26;19957;-62
2024/04/26 05:55:22;;;;;;;;;;;;;;;9.29;66.45;94260.22;4444930;26;19998;-61
2024/04/26 05:57:24;;;;;;;;;;;;;;;9.46;65.69;94260.22;4442556;26;20004;-61
2024/04/26 05:59:26;;;;;;;;;;;;;;;9.69;65.00;94255.97;4442838;26;19936;-62
2024/04/26 06:01:28;;;;;;;;;;;;;;;9.86;65.01;94255.97;4442550;26;19929;-62
2024/04/26 06:03:30;;;;;;;;;;;;;;;9.74;64.53;94266.75;4444611;26;19930;-61
2024/04/26 06:05:32;;;;;;;;;;;;;;;9.91;65.60;94258.91;4436755;26;20309;-62
2024/04/26 06:07:35;;;;;;;;;;;;;;;10.14;65.39;94262.47;4439668;26;19934;-61
2024/04/26 06:09:36;;;;;;;;;;;;;;;10.40;64.12;94261.44;4443691;26;20002;-60
2024/04/26 06:11:39;;;;;;;;;;;;;;;10.66;63.26;94269.03;4439050;26;20003;-62
2024/04/26 06:13:40;;;;;;;;;;;;;;;10.76;62.68;94264.41;4440475;26;19929;-61
2024/04/26 06:15:42;;;;;;;;;;;;;;;10.77;62.34;94268.66;4437444;26;20037;-60
2024/04/26 06:17:44;;;;;;;;;;;;;;;10.89;61.87;94263.88;4443029;26;19945;-60
2024/04/26 06:19:47;;;;;;;;;;;;;;;10.99;61.61;94263.63;4442358;26;20097;-60
2024/04/26 06:21:48;;;;;;;;;;;;;;;11.16;61.77;94269.59;4443475;26;19929;-60
2024/04/26 06:23:50;;;;;;;;;;;;;;;11.18;61.19;94267.63;4433910;26;20353;-60
2024/04/26 06:25:52;;;;;;;;;;;;;;;11.34;61.31;94266.72;4444441;26;20309;-63
2024/04/26 06:27:54;;;;;;;;;;;;;;;11.46;60.73;94266.16;4435015;26;20445;-60
2024/04/26 06:29:56;;;;;;;;;;;;;;;11.40;60.01;94266.84;4444337;26;20002;-62
2024/04/26 06:32:03;;;;;;;;;;;;;;;11.08;60.92;94273.13;4433394;26;19945;-60
2024/04/26 06:34:05;;;;;;;;;;;;;;;11.09;61.01;94273.91;4439644;26;19929;-60
2024/04/26 06:36:07;;;;;;;;;;;;;;;11.10;61.13;94276.38;4444397;26;19937;-61
2024/04/26 06:38:10;;;;;;;;;;;;;;;11.23;61.71;94281.88;4444204;26;19930;-59
2024/04/26 06:40:12;;;;;;;;;;;;;;;11.32;60.24;94282.63;4436429;26;19937;-60
2024/04/26 06:42:15;;;;;;;;;;;;;;;11.03;61.16;94286.75;4433971;26;19965;-61
2024/04/26 06:44:17;;;;;;;;;;;;;;;10.91;61.73;94290.72;4444434;26;20234;-61
2024/04/26 06:46:22;;;;;;;;;;;;;;;10.75;61.75;94286.34;4438449;26;19933;-61
2024/04/26 06:48:24;;;;;;;;;;;;;;;10.09;63.38;94293.56;4437647;26;19937;-61
2024/04/26 06:50:26;;;;;;;;;;;;;;;10.16;63.87;94294.50;4433504;26;19934;-60
2024/04/26 06:52:28;;;;;;;;;;;;;;;10.46;63.49;94289.56;4440372;26;20037;-63
2024/04/26 06:54:30;;;;;;;;;;;;;;;10.73;62.59;94288.31;4438439;26;19936;-61
2024/04/26 06:56:31;;;;;;;;;;;;;;;10.86;62.92;94290.41;4444111;26;20007;-59
2024/04/26 06:58:33;;;;;;;;;;;;;;;10.85;63.26;94294.03;4443371;26;20276;-64
2024/04/26 07:00:35;;;;;;;;;;;;;;;11.00;61.48;94294.94;4443647;26;19934;-60
2024/04/26 07:02:37;;;;;;;;;;;;;;;11.02;60.96;94289.53;4432218;26;20063;-62
2024/04/26 07:04:39;;;;;;;;;;;;;;;11.14;61.29;94287.31;4443335;26;20006;-63
2024/04/26 07:06:41;;;;;;;;;;;;;;;11.20;61.23;94287.44;4441773;26;19937;-61
2024/04/26 07:08:43;;;;;;;;;;;;;;;11.32;60.60;94293.13;4434467;26;20064;-60
2024/04/26 07:10:46;;;;;;;;;;;;;;;11.27;59.70;94292.81;4436866;26;20001;-61
2024/04/26 07:12:48;;;;;;;;;;;;;;;11.26;60.28;94292.00;4443493;26;21740;-61
2024/04/26 07:14:51;;;;;;;;;;;;;;;11.18;60.02;94294.66;4430967;26;19933;-61
2024/04/26 07:16:53;;;;;;;;;;;;;;;11.47;59.95;94295.81;4440585;26;19937;-65
2024/04/26 07:18:56;;;;;;;;;;;;;;;11.41;60.28;94294.69;4443518;26;19967;-60
2024/04/26 07:20:58;;;;;;;;;;;;;;;11.62;59.49;94286.19;4444176;26;19941;-61
2024/04/26 07:23:00;;;;;;;;;;;;;;;11.39;60.46;94286.19;4439375;26;19957;-62
2024/04/26 07:25:05;;;;;;;;;;;;;;;11.55;60.95;94293.16;4441133;26;19994;-61
2024/04/26 07:27:07;;;;;;;;;;;;;;;11.88;59.89;94285.84;4431566;26;20365;-61
2024/04/26 07:29:09;;;;;;;;;;;;;;;12.11;59.57;94295.50;4443742;26;19937;-61
2024/04/26 07:31:30;;;;;;;;;;;;;;;12.43;59.21;94301.41;4445093;26;20009;-61
2024/04/26 07:33:32;;;;;;;;;;;;;;;12.70;58.51;94292.09;4442005;26;19938;-61
2024/04/26 07:35:34;;;;;;;;;;;;;;;12.65;56.82;94289.22;4446100;26;19930;-61
2024/04/26 07:37:36;;;;;;;;;;;;;;;12.15;57.65;94295.94;4446216;26;20291;-60
2024/04/26 07:39:38;;;;;;;;;;;;;;;12.17;57.22;94300.03;4446648;26;20321;-63
2024/04/26 07:41:40;;;;;;;;;;;;;;;12.10;55.96;94296.50;4445934;26;20064;-63
2024/04/26 07:43:44;;;;;;;;;;;;;;;12.05;56.10;94290.97;4450540;26;19965;-62
2024/04/26 07:45:46;;;;;;;;;;;;;;;12.06;56.22;94296.03;4445741;26;20222;-61
2024/04/26 07:47:48;;;;;;;;;;;;;;;11.99;57.23;94291.69;4427900;26;20471;-62
2024/04/26 07:49:50;;;;;;;;;;;;;;;11.56;57.90;94292.13;4425802;26;19991;-63
2024/04/26 07:51:52;;;;;;;;;;;;;;;11.50;58.63;94302.50;4426070;26;19930;-61
2024/04/26 07:53:54;;;;;;;;;;;;;;;11.46;58.92;94292.38;4421827;26;19999;-60
2024/04/26 07:55:55;;;;;;;;;;;;;;;11.82;58.89;94291.78;4439694;26;20002;-60
2024/04/26 07:57:57;;;;;;;;;;;;;;;11.87;57.98;94293.84;4435643;26;20353;-62
2024/04/26 07:59:59;;;;;;;;;;;;;;;11.76;59.13;94300.34;4435759;26;19945;-61
2024/04/26 08:02:01;;;;;;;;;;;;;;;12.14;58.74;94294.34;4435781;26;19940;-64
2024/04/26 08:04:03;;;;;;;;;;;;;;;12.55;57.68;94297.34;4423258;26;19933;-63
2024/04/26 08:06:05;;;;;;;;;;;;;;;13.00;56.38;94300.78;4439869;26;20647;-62
2024/04/26 08:08:07;;;;;;;;;;;;;;;13.26;55.76;94302.09;4435000;26;19941;-60
2024/04/26 08:10:09;;;;;;;;;;;;;;;13.36;55.66;94302.66;4443478;26;19938;-62
2024/04/26 08:12:11;;;;;;;;;;;;;;;13.45;55.16;94303.34;4434821;26;19949;-62
2024/04/26 08:14:13;;;;;;;;;;;;;;;13.44;54.93;94310.44;4439270;26;19941;-62
2024/04/26 08:16:15;;;;;;;;;;;;;;;13.65;53.66;94307.00;4437268;26;19929;-61
2024/04/26 08:18:17;;;;;;;;;;;;;;;13.66;54.17;94295.47;4428808;26;19934;-61
2024/04/26 08:20:18;;;;;;;;;;;;;;;12.89;55.38;94312.56;4436306;26;19938;-60
2024/04/26 08:22:20;;;;;;;;;;;;;;;12.55;54.93;94307.88;4435749;26;19941;-63
2024/04/26 08:24:24;;;;;;;;;;;;;;;12.63;57.34;94310.41;4421951;26;19934;-62
2024/04/26 08:26:26;;;;;;;;;;;;;;;12.34;57.30;94320.91;4433463;26;19930;-60
2024/04/26 08:28:30;;;;;;;;;;;;;;;11.82;58.73;94311.97;4438844;26;19930;-61
2024/04/26 08:30:34;;;;;;;;;;;;;;;12.29;56.91;94313.56;4428421;26;19937;-61
2024/04/26 08:32:36;;;;;;;;;;;;;;;12.57;55.84;94305.88;4445236;26;19937;-61
2024/04/26 08:34:45;;;;;;;;;;;;;;;12.79;55.54;94314.66;4436814;26;19929;-63
2024/04/26 08:36:47;;;;;;;;;;;;;;;13.02;54.44;94309.31;4429478;26;19938;-60
2024/04/26 08:38:54;;;;;;;;;;;;;;;13.34;53.22;94314.38;4433483;26;20332;-64
2024/04/26 08:40:56;;;;;;;;;;;;;;;13.52;52.48;94309.50;4436134;26;19936;-60
2024/04/26 08:42:58;;;;;;;;;;;;;;;13.63;52.57;94310.81;4436068;26;19945;-60
2024/04/26 08:45:00;;;;;;;;;;;;;;;13.61;52.91;94310.19;4421017;26;19965;-63
2024/04/26 08:47:02;;;;;;;;;;;;;;;13.64;52.86;94305.38;4432227;26;19931;-60
2024/04/26 08:49:04;;;;;;;;;;;;;;;13.86;52.13;94305.38;4442054;26;19933;-61
2024/04/26 08:51:06;;;;;;;;;;;;;;;13.49;54.43;94321.22;4426588;26;20034;-62
2024/04/26 08:53:08;;;;;;;;;;;;;;;12.78;55.49;94314.88;4445942;26;19937;-61
2024/04/26 08:55:10;;;;;;;;;;;;;;;13.03;55.88;94315.38;4426917;26;19972;-61
2024/04/26 08:57:12;;;;;;;;;;;;;;;13.38;55.21;94321.69;4435314;26;19937;-61
2024/04/26 08:59:14;;;;;;;;;;;;;;;13.17;53.86;94316.38;4441884;26;19938;-60
2024/04/26 09:01:16;;;;;;;;;;;;;;;13.30;54.93;94311.28;4412571;26;19944;-59
2024/04/26 09:03:18;;;;;;;;;;;;;;;13.45;53.23;94309.44;4433902;26;20418;-60
2024/04/26 09:05:25;;;;;;;;;;;;;;;13.14;53.10;94308.81;4442488;26;19934;-61
2024/04/26 09:07:28;;;;;;;;;;;;;;;13.26;53.17;94308.16;4439376;26;19929;-61
2024/04/26 09:09:30;;;;;;;;;;;;;;;13.69;53.50;94302.19;4445201;26;19936;-60
2024/04/26 09:11:32;;;;;;;;;;;;;;;14.07;52.10;94299.28;4441507;26;19952;-61
2024/04/26 09:13:34;;;;;;;;;;;;;;;14.25;50.94;94302.25;4443774;26;19945;-60
2024/04/26 09:15:36;;;;;;;;;;;;;;;13.69;51.58;94323.22;4426358;26;20044;-61
2024/04/26 09:17:37;;;;;;;;;;;;;;;13.47;51.88;94306.63;4437603;26;19954;-61
2024/04/26 09:19:42;;;;;;;;;;;;;;;13.91;52.14;94298.53;4441277;26;19929;-61
2024/04/26 09:21:44;;;;;;;;;;;;;;;14.44;51.38;94299.97;4439475;26;19945;-60
2024/04/26 09:23:46;;;;;;;;;;;;;;;14.76;50.69;94290.66;4439862;26;20062;-60
2024/04/26 09:25:48;;;;;;;;;;;;;;;14.60;50.62;94296.22;4432163;26;19930;-60
2024/04/26 09:27:50;;;;;;;;;;;;;;;14.50;50.73;94299.19;4446013;26;19998;-61
2024/04/26 09:29:51;;;;;;;;;;;;;;;14.42;49.90;94297.50;4409956;26;19933;-62
2024/04/26 09:32:01;;;;;;;;;;;;;;;14.27;50.00;94302.88;4440272;26;19938;-61
2024/04/26 09:34:17;;;;;;;;;;;;;;;14.50;50.11;94297.38;4442387;26;19930;-61
2024/04/26 09:36:22;;;;;;;;;;;;;;;14.48;50.70;94303.84;4443970;26;19953;-61
2024/04/26 09:38:24;;;;;;;;;;;;;;;13.62;50.97;94302.13;4438854;26;19929;-61
2024/04/26 09:40:26;;;;;;;;;;;;;;;14.07;51.90;94296.66;4439416;26;19937;-60
2024/04/26 09:42:27;;;;;;;;;;;;;;;14.40;50.32;94302.16;4442797;26;20498;-62
2024/04/26 09:44:29;;;;;;;;;;;;;;;14.59;49.50;94289.34;4443053;26;19945;-63
2024/04/26 09:46:34;;;;;;;;;;;;;;;14.86;48.30;94290.28;4438920;26;19936;-62
2024/04/26 09:48:36;;;;;;;;;;;;;;;14.67;49.44;94287.38;4429191;26;19961;-60
2024/04/26 09:50:39;;;;;;;;;;;;;;;13.95;50.75;94298.16;4442378;26;20024;-62
2024/04/26 09:52:44;;;;;;;;;;;;;;;13.73;50.62;94300.81;4443490;26;19929;-63
2024/04/26 09:54:46;;;;;;;;;;;;;;;13.71;51.38;94300.19;4436489;26;19966;-62
2024/04/26 09:56:48;;;;;;;;;;;;;;;13.45;50.66;94298.91;4441958;26;19984;-62
2024/04/26 09:58:51;;;;;;;;;;;;;;;13.45;50.44;94301.53;4440088;26;19937;-62
2024/04/26 10:00:54;;;;;;;;;;;;;;;13.78;49.65;94295.78;4430498;26;19949;-62
2024/04/26 10:03:02;;;;;;;;;;;;;;;13.97;48.88;94296.97;4439185;26;19930;-60
2024/04/26 10:05:04;;;;;;;;;;;;;;;14.13;48.42;94298.50;4437414;26;19930;-61
2024/04/26 10:07:06;;;;;;;;;;;;;;;14.69;47.81;94289.78;4435839;26;20389;-61
2024/04/26 10:09:12;;;;;;;;;;;;;;;14.79;48.05;94286.81;4446879;26;19938;-63
2024/04/26 10:11:17;;;;;;;;;;;;;;;15.10;48.00;94292.44;4442164;26;20245;-62
2024/04/26 10:13:42;;;;;;;;;;;;;;;14.54;47.96;94300.44;4442028;26;19941;-62
2024/04/26 10:15:50;;;;;;;;;;;;;;;14.26;48.20;94290.72;4441148;26;19995;-62
2024/04/26 10:17:52;;;;;;;;;;;;;;;14.65;48.87;94285.94;4433281;26;20076;-61
2024/04/26 10:19:59;;;;;;;;;;;;;;;14.82;48.18;94289.03;4435061;26;20319;-63
2024/04/26 10:22:04;;;;;;;;;;;;;;;15.23;47.92;94296.13;4442316;26;20242;-60
2024/04/26 10:24:06;;;;;;;;;;;;;;;15.71;47.61;94286.34;4433047;26;20380;-62
2024/04/26 10:26:09;;;;;;;;;;;;;;;15.83;44.60;94285.75;4438783;26;19954;-60
2024/04/26 10:28:11;;;;;;;;;;;;;;;15.09;45.96;94285.53;4425134;26;19941;-63
2024/04/26 10:30:15;;;;;;;;;;;;;;;15.20;46.48;94292.06;4440056;26;19962;-61
2024/04/26 10:32:18;;;;;;;;;;;;;;;15.01;45.63;94293.59;4421426;26;19930;-60
2024/04/26 10:34:20;;;;;;;;;;;;;;;15.03;46.25;94288.94;4433496;26;19937;-60
2024/04/26 10:36:23;;;;;;;;;;;;;;;15.26;46.83;94279.91;4428033;26;19933;-61
2024/04/26 10:38:25;;;;;;;;;;;;;;;15.13;46.75;94286.75;4429194;26;20355;-59
2024/04/26 10:40:26;;;;;;;;;;;;;;;15.20;46.67;94286.78;4442931;26;20006;-60
2024/04/26 10:42:28;;;;;;;;;;;;;;;15.13;46.46;94291.22;4432960;26;20104;-59